Time;durP1;ratioP1;P1;durP2;ratioP2;P2;SDS_P1;SDS_P2;PMS_P1;PMS_P2;Temp;Humidity;BMP_temperature;BMP_pressure;BME280_temperature;BME280_humidity;BME280_pressure;Samples;Min_cycle;Max_cycle;Signal;HPM_P1;HPM_P2
2023/07/18 00:00:37;;;;;;;1.60;1.40;;;;;25.60;101071.00;;;;2063689;28;20230;-70
2023/07/18 00:01:37;;;;;;;1.20;0.97;;;;;25.60;101065.00;;;;2063009;28;20469;-69
2023/07/18 00:02:38;;;;;;;1.87;1.30;;;;;25.60;101071.00;;;;2067092;28;20460;-70
2023/07/18 00:03:38;;;;;;;1.60;1.30;;;;;25.70;101067.00;;;;2064860;28;20226;-70
2023/07/18 00:04:39;;;;;;;1.30;0.97;;;;;25.70;101064.00;;;;2058228;28;20272;-70
2023/07/18 00:05:40;;;;;;;1.57;1.10;;;;;25.70;101032.00;;;;2063274;28;20233;-69
2023/07/18 00:06:41;;;;;;;1.20;1.10;;;;;25.70;101063.00;;;;2070636;28;20453;-69
2023/07/18 00:07:42;;;;;;;1.53;1.23;;;;;25.60;101057.00;;;;2069833;28;20460;-69
2023/07/18 00:08:42;;;;;;;1.40;0.90;;;;;25.70;101072.00;;;;2067040;28;20810;-69
2023/07/18 00:09:42;;;;;;;1.37;0.90;;;;;25.60;101071.00;;;;2057668;28;20682;-70
2023/07/18 00:10:43;;;;;;;1.57;1.20;;;;;25.70;101066.00;;;;2063257;28;20697;-70
2023/07/18 00:11:43;;;;;;;2.27;1.30;;;;;25.60;101068.00;;;;2066007;28;20686;-70
2023/07/18 00:12:43;;;;;;;1.90;1.27;;;;;25.60;101072.00;;;;2067236;28;20218;-70
2023/07/18 00:13:44;;;;;;;1.23;1.07;;;;;25.60;101069.00;;;;2065876;28;20219;-69
2023/07/18 00:14:44;;;;;;;1.40;1.20;;;;;25.60;101066.00;;;;2053701;28;21728;-69
2023/07/18 00:15:44;;;;;;;1.47;1.30;;;;;25.60;101076.00;;;;2064984;28;20230;-69
2023/07/18 00:16:45;;;;;;;2.07;1.33;;;;;25.70;101071.00;;;;2068286;28;20296;-69
2023/07/18 00:17:45;;;;;;;1.80;1.63;;;;;25.60;101056.00;;;;2064236;28;20222;-69
2023/07/18 00:18:45;;;;;;;2.07;1.30;;;;;25.60;101068.00;;;;2063987;28;20803;-69
2023/07/18 00:19:46;;;;;;;1.43;1.20;;;;;25.60;101068.00;;;;2052213;28;20231;-69
2023/07/18 00:20:46;;;;;;;1.30;1.00;;;;;25.60;101062.00;;;;2064668;28;20229;-69
2023/07/18 00:21:47;;;;;;;2.03;1.47;;;;;25.60;101064.00;;;;2063595;28;20219;-69
2023/07/18 00:22:49;;;;;;;1.50;1.27;;;;;25.60;101065.00;;;;2064618;28;20227;-69
2023/07/18 00:23:50;;;;;;;1.83;1.30;;;;;25.60;101067.00;;;;2067264;28;20461;-69
2023/07/18 00:24:51;;;;;;;1.40;1.10;;;;;25.60;101065.00;;;;2056580;28;20549;-69
2023/07/18 00:25:51;;;;;;;1.77;1.23;;;;;25.60;101062.00;;;;2067807;28;20485;-69
2023/07/18 00:26:51;;;;;;;1.60;1.10;;;;;25.60;101071.00;;;;2063573;28;20310;-69
2023/07/18 00:27:53;;;;;;;1.50;1.10;;;;;25.60;101006.00;;;;2069609;28;20268;-69
2023/07/18 00:28:54;;;;;;;1.47;1.20;;;;;25.60;101075.00;;;;2065875;28;20270;-69
2023/07/18 00:29:57;;;;;;;1.83;1.40;;;;;25.60;101067.00;;;;2059253;28;20527;-69
2023/07/18 00:30:57;;;;;;;1.30;1.00;;;;;25.60;101072.00;;;;2067047;28;20222;-69
2023/07/18 00:31:58;;;;;;;1.33;1.03;;;;;25.60;101071.00;;;;2062640;28;20454;-69
2023/07/18 00:32:58;;;;;;;1.87;1.17;;;;;25.60;101071.00;;;;2068112;28;20214;-69
2023/07/18 00:33:58;;;;;;;2.10;1.40;;;;;25.60;101073.00;;;;2065301;28;20215;-69
2023/07/18 00:34:59;;;;;;;1.33;0.97;;;;;25.60;101077.00;;;;2055530;28;20312;-69
2023/07/18 00:35:59;;;;;;;6.27;1.40;;;;;25.60;101060.00;;;;2066291;28;20222;-69
2023/07/18 00:36:59;;;;;;;1.83;1.20;;;;;25.60;101064.00;;;;2064710;28;20251;-69
2023/07/18 00:38:00;;;;;;;2.93;1.10;;;;;25.60;101069.00;;;;2068949;28;20210;-69
2023/07/18 00:39:00;;;;;;;1.80;1.40;;;;;25.60;101066.00;;;;2064262;28;20211;-69
2023/07/18 00:40:01;;;;;;;1.50;1.00;;;;;25.60;101067.00;;;;2057267;28;20292;-69
2023/07/18 00:41:04;;;;;;;1.50;1.17;;;;;25.60;101063.00;;;;2067156;28;20276;-69
2023/07/18 00:42:05;;;;;;;1.40;1.00;;;;;25.60;101062.00;;;;2066015;28;20470;-69
2023/07/18 00:43:11;;;;;;;1.40;1.30;;;;;25.60;101060.00;;;;2063917;28;20474;-69
2023/07/18 00:44:12;;;;;;;1.80;1.20;;;;;25.60;101063.00;;;;2065474;28;20230;-69
2023/07/18 00:45:12;;;;;;;1.10;0.80;;;;;25.60;101063.00;;;;2053304;28;20490;-69
2023/07/18 00:46:12;;;;;;;1.50;1.00;;;;;25.60;101065.00;;;;2069330;28;20271;-69
2023/07/18 00:47:13;;;;;;;1.60;1.20;;;;;25.60;101064.00;;;;2063983;28;20668;-69
2023/07/18 00:48:14;;;;;;;2.10;1.43;;;;;25.60;101067.00;;;;2062975;28;20223;-69
2023/07/18 00:49:14;;;;;;;1.37;1.00;;;;;25.60;101064.00;;;;2070278;28;20222;-69
2023/07/18 00:50:15;;;;;;;1.40;0.90;;;;;25.60;101066.00;;;;2044782;28;20246;-70
2023/07/18 00:51:15;;;;;;;1.47;1.20;;;;;25.60;101061.00;;;;2062992;28;21012;-70
2023/07/18 00:52:16;;;;;;;1.80;1.23;;;;;25.60;101072.00;;;;2062457;28;20482;-70
2023/07/18 00:53:16;;;;;;;1.67;1.33;;;;;25.60;101073.00;;;;2063885;28;20223;-70
2023/07/18 00:54:17;;;;;;;1.33;1.10;;;;;25.60;101072.00;;;;2062484;28;20233;-70
2023/07/18 00:55:18;;;;;;;1.43;1.13;;;;;25.60;101071.00;;;;2039141;28;20327;-70
2023/07/18 00:56:18;;;;;;;1.77;1.20;;;;;25.60;101030.00;;;;2063826;28;20458;-69
2023/07/18 00:57:19;;;;;;;1.70;1.00;;;;;25.60;101065.00;;;;2054475;28;20231;-70
2023/07/18 00:58:19;;;;;;;1.40;1.10;;;;;25.60;101053.00;;;;2051216;28;20266;-70
2023/07/18 00:59:19;;;;;;;1.30;1.10;;;;;25.60;101067.00;;;;2057914;28;20226;-70
2023/07/18 01:00:22;;;;;;;2.00;1.33;;;;;25.60;101070.00;;;;2055338;28;20630;-69
2023/07/18 01:01:22;;;;;;;1.30;1.00;;;;;25.60;101071.00;;;;2063324;28;20219;-69
2023/07/18 01:02:23;;;;;;;1.67;1.30;;;;;25.60;101069.00;;;;2067920;28;20488;-69
2023/07/18 01:03:23;;;;;;;1.53;1.13;;;;;25.60;101066.00;;;;2063527;28;20219;-69
2023/07/18 01:04:24;;;;;;;1.20;1.00;;;;;25.60;101067.00;;;;2062802;28;20242;-69
2023/07/18 01:05:24;;;;;;;1.37;1.20;;;;;25.60;101056.00;;;;2056567;28;20260;-69
2023/07/18 01:06:25;;;;;;;1.50;1.23;;;;;25.60;101053.00;;;;2063236;28;20219;-69
2023/07/18 01:07:25;;;;;;;1.37;1.03;;;;;25.60;101062.00;;;;2069332;28;20229;-69
2023/07/18 01:08:25;;;;;;;1.20;0.90;;;;;25.60;101065.00;;;;2065391;28;20223;-69
2023/07/18 01:09:26;;;;;;;1.17;1.07;;;;;25.60;101060.00;;;;2063169;28;20222;-69
2023/07/18 01:10:26;;;;;;;1.40;1.10;;;;;25.60;101057.00;;;;2049137;28;20226;-69
2023/07/18 01:11:27;;;;;;;1.30;1.00;;;;;25.60;101056.00;;;;2062350;28;20239;-69
2023/07/18 01:12:27;;;;;;;1.60;1.20;;;;;25.60;101061.00;;;;2071253;28;20586;-69
2023/07/18 01:13:27;;;;;;;1.47;1.00;;;;;25.60;101065.00;;;;2063807;28;20725;-70
2023/07/18 01:14:28;;;;;;;1.80;1.10;;;;;25.60;101069.00;;;;2064294;28;20701;-70
2023/07/18 01:15:32;;;;;;;1.60;1.10;;;;;25.60;101056.00;;;;2059742;28;20693;-70
2023/07/18 01:16:32;;;;;;;2.57;1.10;;;;;25.60;101060.00;;;;2063675;28;20728;-69
2023/07/18 01:17:33;;;;;;;1.40;1.10;;;;;25.60;101034.00;;;;2063675;28;20466;-69
2023/07/18 01:18:33;;;;;;;1.63;1.27;;;;;25.60;101062.00;;;;2054959;28;20226;-69
2023/07/18 01:19:35;;;;;;;1.83;1.27;;;;;25.60;101055.00;;;;2054241;28;21263;-69
2023/07/18 01:20:36;;;;;;;1.33;1.07;;;;;25.60;100997.00;;;;2069459;28;20225;-69
2023/07/18 01:21:36;;;;;;;1.70;1.20;;;;;25.60;101054.00;;;;2066972;28;20523;-69
2023/07/18 01:22:37;;;;;;;1.07;0.90;;;;;25.60;101050.00;;;;2069729;28;20543;-69
2023/07/18 01:23:37;;;;;;;1.73;1.20;;;;;25.60;101048.00;;;;2063660;28;20219;-69
2023/07/18 01:24:37;;;;;;;1.93;1.40;;;;;25.60;101054.00;;;;2056716;28;20217;-69
2023/07/18 01:25:38;;;;;;;1.63;1.23;;;;;25.60;101052.00;;;;2066547;28;20219;-69
2023/07/18 01:26:38;;;;;;;1.07;0.90;;;;;25.60;101053.00;;;;2066320;28;20221;-69
2023/07/18 01:27:39;;;;;;;1.90;1.47;;;;;25.60;101057.00;;;;2064808;28;20273;-69
2023/07/18 01:28:39;;;;;;;1.73;1.20;;;;;25.60;101055.00;;;;2065303;28;20215;-69
2023/07/18 01:29:39;;;;;;;1.60;1.33;;;;;25.60;101049.00;;;;2060119;28;20218;-69
2023/07/18 01:30:40;;;;;;;1.73;1.10;;;;;25.50;101053.00;;;;2063398;28;20681;-70
2023/07/18 01:31:40;;;;;;;1.20;0.90;;;;;25.60;101047.00;;;;2066967;28;20591;-69
2023/07/18 01:32:42;;;;;;;1.40;1.17;;;;;25.60;101056.00;;;;2064648;28;21013;-70
2023/07/18 01:33:43;;;;;;;1.50;1.10;;;;;25.60;101046.00;;;;2069000;28;20621;-70
2023/07/18 01:34:44;;;;;;;1.63;1.33;;;;;25.60;101052.00;;;;2054991;28;20592;-69
2023/07/18 01:35:45;;;;;;;1.50;1.20;;;;;25.60;101043.00;;;;2063470;28;20466;-69
2023/07/18 01:36:46;;;;;;;1.20;1.00;;;;;25.60;101046.00;;;;2068540;28;20229;-69
2023/07/18 01:37:46;;;;;;;1.70;1.20;;;;;25.60;101039.00;;;;2066296;28;20824;-69
2023/07/18 01:38:47;;;;;;;2.50;0.90;;;;;25.60;101044.00;;;;2068826;28;20588;-69
2023/07/18 01:39:47;;;;;;;1.30;1.10;;;;;25.60;101043.00;;;;2055553;28;20221;-69
2023/07/18 01:40:47;;;;;;;1.37;0.97;;;;;25.60;101037.00;;;;2065189;28;20226;-69
2023/07/18 01:41:49;;;;;;;1.50;1.30;;;;;25.60;101043.00;;;;2067801;28;20233;-69
2023/07/18 01:42:51;;;;;;;1.40;1.20;;;;;25.60;101021.00;;;;2064558;28;20231;-69
2023/07/18 01:43:51;;;;;;;1.20;0.97;;;;;25.60;101047.00;;;;2063360;28;20466;-69
2023/07/18 01:44:51;;;;;;;1.50;0.90;;;;;25.60;101047.00;;;;2052337;28;20505;-69
2023/07/18 01:45:52;;;;;;;1.27;1.10;;;;;25.60;101044.00;;;;2065675;28;20221;-69
2023/07/18 01:46:52;;;;;;;1.20;0.93;;;;;25.50;101037.00;;;;2066564;28;20684;-69
2023/07/18 01:47:54;;;;;;;1.80;1.13;;;;;25.60;101044.00;;;;2067393;28;20593;-69
2023/07/18 01:48:54;;;;;;;1.60;1.20;;;;;25.50;101038.00;;;;2074643;28;20218;-69
2023/07/18 01:49:54;;;;;;;1.20;0.97;;;;;25.50;101037.00;;;;2052832;28;20515;-69
2023/07/18 01:50:54;;;;;;;1.03;0.93;;;;;25.50;101041.00;;;;2063862;28;20219;-69
2023/07/18 01:51:55;;;;;;;1.47;1.10;;;;;25.50;101044.00;;;;2062583;28;20257;-69
2023/07/18 01:52:55;;;;;;;1.73;1.13;;;;;25.60;101040.00;;;;2063250;28;20227;-69
2023/07/18 01:53:56;;;;;;;2.37;1.33;;;;;25.60;101036.00;;;;2062739;28;20222;-69
2023/07/18 01:54:58;;;;;;;1.60;1.20;;;;;25.50;101041.00;;;;2053761;28;20230;-69
2023/07/18 01:55:59;;;;;;;1.47;1.20;;;;;25.60;101039.00;;;;2063206;28;20219;-69
2023/07/18 01:56:59;;;;;;;1.10;1.00;;;;;25.60;101041.00;;;;2063686;28;20513;-69
2023/07/18 01:58:00;;;;;;;1.70;1.00;;;;;25.60;101046.00;;;;2066577;28;20276;-69
2023/07/18 01:59:00;;;;;;;1.17;0.87;;;;;25.60;101041.00;;;;2063079;28;20218;-69
2023/07/18 02:00:00;;;;;;;1.30;1.10;;;;;25.50;101041.00;;;;2054594;28;20226;-69
2023/07/18 02:01:03;;;;;;;1.40;1.10;;;;;25.50;101040.00;;;;2066146;28;20216;-70
2023/07/18 02:02:06;;;;;;;1.63;1.30;;;;;25.50;101040.00;;;;2066416;28;20591;-69
2023/07/18 02:03:06;;;;;;;1.33;1.20;;;;;25.50;101038.00;;;;2066228;28;20458;-69
2023/07/18 02:04:07;;;;;;;1.80;1.50;;;;;25.50;101036.00;;;;2064044;28;20474;-69
2023/07/18 02:05:08;;;;;;;1.60;1.40;;;;;25.50;101034.00;;;;2055116;28;20239;-69
2023/07/18 02:06:10;;;;;;;1.57;1.37;;;;;25.50;101031.00;;;;2064352;28;20242;-69
2023/07/18 02:07:10;;;;;;;1.57;1.00;;;;;25.50;101027.00;;;;2065402;28;20469;-69
2023/07/18 02:08:11;;;;;;;1.53;1.00;;;;;25.50;101035.00;;;;2064246;28;20458;-69
2023/07/18 02:09:11;;;;;;;2.17;1.53;;;;;25.50;101020.00;;;;2064079;28;20281;-69
2023/07/18 02:10:13;;;;;;;1.60;1.20;;;;;25.50;101031.00;;;;2060080;28;20226;-69
2023/07/18 02:11:14;;;;;;;1.93;1.50;;;;;25.50;101029.00;;;;2062241;28;20226;-69
2023/07/18 02:12:14;;;;;;;1.67;1.20;;;;;25.60;101028.00;;;;2069343;28;20571;-69
2023/07/18 02:13:14;;;;;;;1.40;0.97;;;;;25.50;101033.00;;;;2057197;28;20242;-69
2023/07/18 02:14:20;;;;;;;1.70;1.20;;;;;25.50;101032.00;;;;2063612;28;20231;-69
2023/07/18 02:15:20;;;;;;;1.43;1.07;;;;;25.50;101020.00;;;;2052529;28;20369;-69
2023/07/18 02:16:21;;;;;;;1.70;1.20;;;;;25.50;101026.00;;;;2063933;28;20512;-70
2023/07/18 02:17:21;;;;;;;1.67;1.17;;;;;25.50;101025.00;;;;2071647;28;20226;-70
2023/07/18 02:18:21;;;;;;;1.80;1.07;;;;;25.50;101030.00;;;;2065753;28;20225;-69
2023/07/18 02:19:23;;;;;;;2.00;1.20;;;;;25.50;101018.00;;;;2064276;28;20357;-69
2023/07/18 02:20:23;;;;;;;1.50;1.20;;;;;25.50;101021.00;;;;2054616;28;20218;-69
2023/07/18 02:21:24;;;;;;;1.60;1.10;;;;;25.50;101033.00;;;;2065238;28;20458;-69
2023/07/18 02:22:25;;;;;;;1.30;1.10;;;;;25.50;101029.00;;;;2063114;28;20226;-70
2023/07/18 02:23:25;;;;;;;1.40;1.10;;;;;25.50;101029.00;;;;2071564;28;20230;-70
2023/07/18 02:24:25;;;;;;;1.60;1.00;;;;;25.50;101038.00;;;;2062989;28;20461;-70
2023/07/18 02:25:26;;;;;;;1.40;1.10;;;;;25.50;101037.00;;;;2052636;28;20230;-70
2023/07/18 02:26:27;;;;;;;1.70;1.40;;;;;25.50;101024.00;;;;2061629;28;20214;-70
2023/07/18 02:27:27;;;;;;;1.60;1.17;;;;;25.50;101032.00;;;;2060058;28;20584;-70
2023/07/18 02:28:27;;;;;;;1.73;1.23;;;;;25.50;101023.00;;;;2070903;28;20225;-70
2023/07/18 02:29:28;;;;;;;1.03;0.93;;;;;25.50;101020.00;;;;2063496;28;20241;-70
2023/07/18 02:30:28;;;;;;;1.40;1.10;;;;;25.50;101016.00;;;;2042099;28;20224;-69
2023/07/18 02:31:28;;;;;;;1.40;1.10;;;;;25.50;101021.00;;;;2066975;28;20222;-69
2023/07/18 02:32:31;;;;;;;1.60;1.10;;;;;25.40;101022.00;;;;2061862;28;20249;-69
2023/07/18 02:33:32;;;;;;;1.50;1.20;;;;;25.50;101021.00;;;;2070239;28;20249;-69
2023/07/18 02:34:33;;;;;;;1.73;1.13;;;;;25.50;101013.00;;;;2057316;28;20504;-69
2023/07/18 02:35:33;;;;;;;1.50;1.10;;;;;25.50;101014.00;;;;2061133;28;20238;-69
2023/07/18 02:36:33;;;;;;;1.70;1.20;;;;;25.50;101019.00;;;;2065987;28;20217;-69
2023/07/18 02:37:34;;;;;;;1.33;1.03;;;;;25.50;101012.00;;;;2063124;28;20210;-69
2023/07/18 02:38:34;;;;;;;1.13;0.97;;;;;25.50;101020.00;;;;2062950;28;20209;-69
2023/07/18 02:39:42;;;;;;;1.20;0.90;;;;;25.50;101016.00;;;;2056333;28;20974;-69
2023/07/18 02:40:42;;;;;;;2.00;1.10;;;;;25.50;101014.00;;;;2061576;28;20215;-69
2023/07/18 02:41:42;;;;;;;1.13;0.80;;;;;25.50;101014.00;;;;2065673;28;20552;-69
2023/07/18 02:42:43;;;;;;;1.37;1.20;;;;;25.50;101010.00;;;;2064424;28;20241;-69
2023/07/18 02:43:43;;;;;;;1.43;1.03;;;;;25.50;101008.00;;;;2069756;28;20210;-69
2023/07/18 02:44:44;;;;;;;1.50;1.10;;;;;25.50;101007.00;;;;2062552;28;20616;-69
2023/07/18 02:45:45;;;;;;;1.20;1.10;;;;;25.50;101005.00;;;;2070749;28;20724;-69
2023/07/18 02:46:45;;;;;;;1.33;0.97;;;;;25.50;101009.00;;;;2062973;28;20478;-69
2023/07/18 02:47:46;;;;;;;1.70;1.30;;;;;25.50;101003.00;;;;2064792;28;20219;-69
2023/07/18 02:48:46;;;;;;;1.63;1.07;;;;;25.50;101001.00;;;;2061754;28;20285;-69
2023/07/18 02:49:46;;;;;;;1.17;0.83;;;;;25.50;101006.00;;;;2058704;28;20268;-69
2023/07/18 02:50:48;;;;;;;1.70;1.10;;;;;25.50;101012.00;;;;2063294;28;20211;-69
2023/07/18 02:51:48;;;;;;;2.10;1.23;;;;;25.50;101003.00;;;;2065208;28;20215;-69
2023/07/18 02:52:49;;;;;;;1.53;1.23;;;;;25.50;101008.00;;;;2070919;28;20471;-69
2023/07/18 02:53:51;;;;;;;1.53;1.10;;;;;25.50;101008.00;;;;2064550;28;20215;-69
2023/07/18 02:54:51;;;;;;;1.13;1.03;;;;;25.50;101002.00;;;;2058314;28;20736;-69
2023/07/18 02:55:51;;;;;;;1.47;1.13;;;;;25.50;100999.00;;;;2063609;28;20465;-69
2023/07/18 02:56:52;;;;;;;1.60;1.20;;;;;25.50;101004.00;;;;2063089;28;20250;-69
2023/07/18 02:57:53;;;;;;;1.30;1.10;;;;;25.50;101000.00;;;;2057973;28;20682;-69
2023/07/18 02:58:53;;;;;;;1.47;1.00;;;;;25.50;101005.00;;;;2063601;28;20234;-69
2023/07/18 02:59:53;;;;;;;1.20;1.10;;;;;25.50;101006.00;;;;2053616;28;20669;-69
2023/07/18 03:00:54;;;;;;;1.40;1.20;;;;;25.50;100999.00;;;;2069681;28;21005;-69
2023/07/18 03:01:57;;;;;;;1.20;0.83;;;;;25.50;101007.00;;;;2068570;28;20705;-69
2023/07/18 03:02:57;;;;;;;1.37;1.17;;;;;25.50;101011.00;;;;2065197;28;20579;-69
2023/07/18 03:03:59;;;;;;;1.00;0.80;;;;;25.50;101005.00;;;;2064435;28;20465;-69
2023/07/18 03:04:59;;;;;;;1.57;1.30;;;;;25.50;101002.00;;;;2052751;28;20233;-69
2023/07/18 03:05:59;;;;;;;1.60;0.93;;;;;25.50;101009.00;;;;2069574;28;20453;-69
2023/07/18 03:07:00;;;;;;;0.90;0.73;;;;;25.50;101012.00;;;;2069775;28;20225;-69
2023/07/18 03:08:00;;;;;;;2.80;0.90;;;;;25.50;101007.00;;;;2064303;28;20238;-69
2023/07/18 03:09:01;;;;;;;1.50;1.13;;;;;25.50;101013.00;;;;2068742;28;20597;-69
2023/07/18 03:10:03;;;;;;;1.43;1.07;;;;;25.50;101007.00;;;;2059613;28;20296;-69
2023/07/18 03:11:04;;;;;;;1.40;1.00;;;;;25.50;101004.00;;;;2060961;28;20555;-69
2023/07/18 03:12:06;;;;;;;1.30;1.10;;;;;25.50;101007.00;;;;2062270;28;20535;-69
2023/07/18 03:13:06;;;;;;;1.60;1.23;;;;;25.50;101011.00;;;;2053815;28;20227;-69
2023/07/18 03:14:08;;;;;;;1.23;1.00;;;;;25.50;101012.00;;;;2065549;28;20458;-70
2023/07/18 03:15:11;;;;;;;1.40;1.20;;;;;25.50;101007.00;;;;2059799;28;20597;-69
2023/07/18 03:16:11;;;;;;;1.17;0.90;;;;;25.50;101009.00;;;;2078332;28;20456;-69
2023/07/18 03:17:12;;;;;;;1.47;1.20;;;;;25.50;101002.00;;;;2067370;28;20505;-69
2023/07/18 03:18:12;;;;;;;1.37;1.00;;;;;25.50;101015.00;;;;2065082;28;20224;-69
2023/07/18 03:19:14;;;;;;;1.70;1.20;;;;;25.50;101009.00;;;;2064033;28;20222;-72
2023/07/18 03:20:18;;;;;;;1.13;1.00;;;;;25.50;101003.00;;;;2056664;28;20579;-70
2023/07/18 03:21:19;;;;;;;1.37;1.10;;;;;25.50;101007.00;;;;2075868;28;20453;-69
2023/07/18 03:22:19;;;;;;;1.50;0.93;;;;;25.50;101004.00;;;;2064303;28;20465;-69
2023/07/18 03:23:21;;;;;;;1.57;1.20;;;;;25.50;101001.00;;;;2067953;28;20218;-69
2023/07/18 03:24:21;;;;;;;1.63;1.17;;;;;25.50;101004.00;;;;2064147;28;20290;-69
2023/07/18 03:25:21;;;;;;;1.30;0.93;;;;;25.50;101012.00;;;;2067194;28;20879;-69
2023/07/18 03:26:22;;;;;;;1.40;1.03;;;;;25.50;101001.00;;;;2075626;28;20654;-69
2023/07/18 03:27:22;;;;;;;1.60;1.20;;;;;25.50;101001.00;;;;2066066;28;20635;-69
2023/07/18 03:28:22;;;;;;;1.30;1.00;;;;;25.50;100996.00;;;;2069702;28;20763;-69
2023/07/18 03:29:23;;;;;;;1.50;1.23;;;;;25.50;101005.00;;;;2064934;28;20634;-70
2023/07/18 03:30:23;;;;;;;2.60;1.20;;;;;25.50;101003.00;;;;2068045;28;20263;-70
2023/07/18 03:31:23;;;;;;;1.50;0.93;;;;;25.50;100996.00;;;;2070206;28;20218;-70
2023/07/18 03:32:24;;;;;;;1.43;1.20;;;;;25.50;101001.00;;;;2061602;28;20254;-69
2023/07/18 03:33:25;;;;;;;1.93;1.30;;;;;25.50;100992.00;;;;2062955;28;20225;-69
2023/07/18 03:34:25;;;;;;;2.40;0.97;;;;;25.50;100995.00;;;;2065576;28;21021;-69
2023/07/18 03:35:25;;;;;;;1.10;0.90;;;;;25.50;100994.00;;;;2044240;28;20295;-69
2023/07/18 03:36:26;;;;;;;1.30;1.00;;;;;25.50;100998.00;;;;2039441;29;20224;-69
2023/07/18 03:37:26;;;;;;;1.43;1.07;;;;;25.50;101001.00;;;;2059970;28;20329;-69
2023/07/18 03:38:27;;;;;;;2.13;1.30;;;;;25.50;101004.00;;;;2060754;28;20260;-69
2023/07/18 03:39:27;;;;;;;1.63;1.10;;;;;25.50;100998.00;;;;2065821;28;20218;-69
2023/07/18 03:40:27;;;;;;;1.13;0.90;;;;;25.50;101000.00;;;;2067086;28;20384;-69
2023/07/18 03:41:28;;;;;;;1.53;1.00;;;;;25.50;101002.00;;;;2076163;28;20223;-69
2023/07/18 03:42:28;;;;;;;1.30;1.07;;;;;25.50;101003.00;;;;2066400;28;20223;-69
2023/07/18 03:43:28;;;;;;;1.50;1.30;;;;;25.50;101002.00;;;;2062943;28;20281;-70
2023/07/18 03:44:29;;;;;;;1.80;1.23;;;;;25.40;101003.00;;;;2067956;28;20225;-70
2023/07/18 03:45:29;;;;;;;1.17;1.03;;;;;25.50;101009.00;;;;2062091;28;20273;-70
2023/07/18 03:46:29;;;;;;;1.10;0.90;;;;;25.50;101002.00;;;;2079611;28;20233;-70
2023/07/18 03:47:30;;;;;;;1.33;1.00;;;;;25.50;100996.00;;;;2065839;28;20232;-70
2023/07/18 03:48:30;;;;;;;1.07;0.83;;;;;25.40;100993.00;;;;2058705;28;20237;-69
2023/07/18 03:49:30;;;;;;;1.40;1.10;;;;;25.40;101004.00;;;;2071205;28;20229;-69
2023/07/18 03:50:31;;;;;;;2.70;1.07;;;;;25.40;101004.00;;;;2054634;28;20223;-69
2023/07/18 03:51:31;;;;;;;1.10;0.80;;;;;25.40;101004.00;;;;2064652;28;20229;-69
2023/07/18 03:52:31;;;;;;;1.50;1.17;;;;;25.40;101002.00;;;;2059071;28;20222;-69
2023/07/18 03:53:32;;;;;;;1.00;0.87;;;;;25.40;100996.00;;;;2065052;28;20219;-69
2023/07/18 03:54:33;;;;;;;1.67;1.00;;;;;25.40;100992.00;;;;2064822;28;20230;-69
2023/07/18 03:55:33;;;;;;;1.20;1.00;;;;;25.50;101002.00;;;;2071815;28;20272;-69
2023/07/18 03:56:33;;;;;;;1.30;0.90;;;;;25.50;101002.00;;;;2064631;28;20568;-69
2023/07/18 03:57:34;;;;;;;1.30;1.10;;;;;25.40;100993.00;;;;2062525;28;20223;-69
2023/07/18 03:58:34;;;;;;;1.23;1.00;;;;;25.40;101001.00;;;;2064316;28;20293;-69
2023/07/18 03:59:35;;;;;;;2.23;1.10;;;;;25.50;100993.00;;;;2061573;28;20573;-69
2023/07/18 04:00:35;;;;;;;1.63;1.10;;;;;25.50;100996.00;;;;2078099;28;20221;-69
2023/07/18 04:01:35;;;;;;;1.03;0.80;;;;;25.50;100998.00;;;;2077151;28;20222;-69
2023/07/18 04:02:36;;;;;;;1.23;1.00;;;;;25.40;100985.00;;;;2069452;28;20249;-69
2023/07/18 04:03:36;;;;;;;1.43;1.10;;;;;25.50;101004.00;;;;2066647;28;20222;-70
2023/07/18 04:04:37;;;;;;;1.20;0.90;;;;;25.50;101004.00;;;;2054351;28;20285;-70
2023/07/18 04:05:37;;;;;;;1.37;1.10;;;;;25.40;100994.00;;;;2056383;28;20714;-70
2023/07/18 04:06:37;;;;;;;1.03;0.80;;;;;25.50;101004.00;;;;2070406;28;20248;-69
2023/07/18 04:07:39;;;;;;;1.33;0.97;;;;;25.40;100997.00;;;;2063848;28;20218;-69
2023/07/18 04:08:40;;;;;;;1.20;1.00;;;;;25.40;100989.00;;;;2066776;28;20226;-69
2023/07/18 04:09:40;;;;;;;1.83;1.00;;;;;25.40;100991.00;;;;2053844;28;20446;-69
2023/07/18 04:10:40;;;;;;;1.43;1.00;;;;;25.40;100988.00;;;;2072102;28;20980;-69
2023/07/18 04:11:43;;;;;;;1.00;0.80;;;;;25.40;100993.00;;;;2062171;28;20215;-69
2023/07/18 04:12:44;;;;;;;1.40;1.10;;;;;25.40;100994.00;;;;2064155;28;20223;-69
2023/07/18 04:13:44;;;;;;;1.63;1.10;;;;;25.40;100993.00;;;;2065739;28;20462;-69
2023/07/18 04:14:44;;;;;;;2.53;1.20;;;;;25.40;100984.00;;;;2055363;28;20219;-69
2023/07/18 04:15:45;;;;;;;1.70;1.27;;;;;25.40;100988.00;;;;2071568;28;20228;-69
2023/07/18 04:16:45;;;;;;;1.70;1.17;;;;;25.40;100985.00;;;;2068714;28;20218;-69
2023/07/18 04:17:45;;;;;;;1.40;0.97;;;;;25.40;100991.00;;;;2064012;28;20226;-69
2023/07/18 04:18:45;;;;;;;2.00;1.20;;;;;25.40;100985.00;;;;2065553;28;20219;-69
2023/07/18 04:19:46;;;;;;;2.13;1.00;;;;;25.40;100988.00;;;;2054299;28;20225;-69
2023/07/18 04:20:46;;;;;;;1.50;1.20;;;;;25.40;100990.00;;;;2071220;28;20214;-69
2023/07/18 04:21:47;;;;;;;2.00;1.03;;;;;25.40;100980.00;;;;2070297;28;20220;-69
2023/07/18 04:22:47;;;;;;;2.07;1.43;;;;;25.40;100979.00;;;;2062515;28;20231;-69
2023/07/18 04:23:48;;;;;;;1.23;0.90;;;;;25.40;100981.00;;;;2063764;28;20215;-69
2023/07/18 04:24:48;;;;;;;1.57;1.20;;;;;25.40;100980.00;;;;2056454;28;20210;-69
2023/07/18 04:25:58;;;;;;;2.10;1.10;;;;;25.40;100985.00;;;;2069373;28;20446;-69
2023/07/18 04:26:59;;;;;;;1.40;1.17;;;;;25.40;100980.00;;;;2074010;28;20687;-69
2023/07/18 04:27:59;;;;;;;1.60;1.10;;;;;25.40;100976.00;;;;2066367;28;20469;-69
2023/07/18 04:29:00;;;;;;;1.50;1.00;;;;;25.50;100981.00;;;;2069807;28;20199;-69
2023/07/18 04:30:00;;;;;;;1.63;1.00;;;;;25.40;100979.00;;;;2059004;28;20597;-69
2023/07/18 04:31:01;;;;;;;2.00;1.00;;;;;25.40;100980.00;;;;2074885;28;20632;-69
2023/07/18 04:32:02;;;;;;;1.52;1.05;;;;;25.40;100975.00;;;;2072984;28;20226;-69
2023/07/18 04:33:02;;;;;;;1.40;1.03;;;;;25.40;100980.00;;;;2064529;28;20241;-69
2023/07/18 04:34:03;;;;;;;1.57;0.87;;;;;25.40;100979.00;;;;2064675;28;20297;-69
2023/07/18 04:35:03;;;;;;;1.57;1.10;;;;;25.40;100981.00;;;;2058411;28;20488;-69
2023/07/18 04:36:04;;;;;;;1.97;1.13;;;;;25.40;100987.00;;;;2071826;28;20221;-70
2023/07/18 04:37:04;;;;;;;1.40;1.00;;;;;25.40;100981.00;;;;2066371;28;20686;-70
2023/07/18 04:38:06;;;;;;;1.30;1.03;;;;;25.40;100985.00;;;;2066170;28;20269;-69
2023/07/18 04:39:06;;;;;;;2.00;1.30;;;;;25.40;100985.00;;;;2063393;28;20222;-69
2023/07/18 04:40:08;;;;;;;1.43;1.17;;;;;25.40;100979.00;;;;2058382;28;20465;-69
2023/07/18 04:41:08;;;;;;;1.20;1.00;;;;;25.40;100989.00;;;;2071722;28;20229;-69
2023/07/18 04:42:10;;;;;;;1.17;0.90;;;;;25.40;100985.00;;;;2066631;28;20454;-69
2023/07/18 04:43:10;;;;;;;1.40;1.17;;;;;25.40;100980.00;;;;2066064;28;20830;-69
2023/07/18 04:44:10;;;;;;;1.40;0.80;;;;;25.50;100986.00;;;;2064089;28;20477;-69
2023/07/18 04:45:11;;;;;;;1.40;1.10;;;;;25.40;100984.00;;;;2066768;28;20917;-69
2023/07/18 04:46:11;;;;;;;1.50;1.10;;;;;25.40;100985.00;;;;2076503;28;20810;-69
2023/07/18 04:47:12;;;;;;;1.20;0.80;;;;;25.50;100978.00;;;;2066318;28;20223;-69
2023/07/18 04:48:13;;;;;;;1.10;0.80;;;;;25.40;100981.00;;;;2066438;28;20234;-69
2023/07/18 04:49:13;;;;;;;1.43;0.97;;;;;25.50;100958.00;;;;2066442;28;20273;-69
2023/07/18 04:50:14;;;;;;;1.50;0.90;;;;;25.40;100977.00;;;;2050577;28;20525;-69
2023/07/18 04:51:16;;;;;;;1.50;1.20;;;;;25.50;100981.00;;;;2056703;28;20215;-69
2023/07/18 04:52:17;;;;;;;1.67;1.20;;;;;25.50;100987.00;;;;2071564;28;20735;-69
2023/07/18 04:53:17;;;;;;;1.60;1.30;;;;;25.40;100977.00;;;;2074544;28;20455;-69
2023/07/18 04:54:18;;;;;;;1.37;1.10;;;;;25.50;100983.00;;;;2071714;28;20214;-69
2023/07/18 04:55:19;;;;;;;1.30;0.90;;;;;25.40;100983.00;;;;2054653;28;20227;-69
2023/07/18 04:56:19;;;;;;;1.67;1.27;;;;;25.40;100984.00;;;;2064448;28;20468;-69
2023/07/18 04:57:21;;;;;;;1.27;1.10;;;;;25.50;100985.00;;;;2068027;28;20245;-69
2023/07/18 04:58:22;;;;;;;1.70;1.13;;;;;25.50;100985.00;;;;2066545;28;20238;-69
2023/07/18 04:59:23;;;;;;;1.40;1.20;;;;;25.50;100983.00;;;;2064152;28;20237;-69
2023/07/18 05:00:23;;;;;;;1.60;1.10;;;;;25.50;100984.00;;;;2054962;28;20733;-69